Time;durP1;ratioP1;P1;durP2;ratioP2;P2;SDS_P1;SDS_P2;PMS_P1;PMS_P2;Temp;Humidity;BMP_temperature;BMP_pressure;BME280_temperature;BME280_humidity;BME280_pressure;Samples;Min_cycle;Max_cycle;Signal;HPM_P1;HPM_P2
2022/10/09 00:00:41;;;;;;;6.80;4.80;;;;;;;;;;5051792;28;20234;-85
2022/10/09 00:03:10;;;;;;;5.63;4.23;;;;;;;;;;5051200;28;20239;-84
2022/10/09 00:05:37;;;;;;;7.03;4.80;;;;;;;;;;5051511;28;20202;-84
2022/10/09 00:08:04;;;;;;;8.70;4.53;;;;;;;;;;5050953;28;20237;-84
2022/10/09 00:10:31;;;;;;;6.83;4.50;;;;;;;;;;5052488;28;20578;-85
2022/10/09 00:12:58;;;;;;;4.40;4.00;;;;;;;;;;5051216;28;20237;-85
2022/10/09 00:15:25;;;;;;;5.00;4.50;;;;;;;;;;5053415;28;20543;-85
2022/10/09 00:17:53;;;;;;;8.87;3.80;;;;;;;;;;5054804;28;20240;-84
2022/10/09 00:20:21;;;;;;;4.73;3.93;;;;;;;;;;5055143;28;20233;-84
2022/10/09 00:22:48;;;;;;;5.57;4.40;;;;;;;;;;5054698;28;20236;-85
2022/10/09 00:25:15;;;;;;;6.83;4.70;;;;;;;;;;5055395;28;20213;-84
2022/10/09 00:27:42;;;;;;;5.17;4.30;;;;;;;;;;5054511;28;20597;-84
2022/10/09 00:30:10;;;;;;;6.13;4.17;;;;;;;;;;5055021;28;20229;-84
2022/10/09 00:32:37;;;;;;;7.97;4.60;;;;;;;;;;5054699;28;20260;-85
2022/10/09 00:35:04;;;;;;;5.90;4.30;;;;;;;;;;5054865;28;20202;-85
2022/10/09 00:37:32;;;;;;;7.13;4.20;;;;;;;;;;5054386;28;20570;-85
2022/10/09 00:39:59;;;;;;;5.43;3.70;;;;;;;;;;5054851;28;20203;-84
2022/10/09 00:42:27;;;;;;;4.70;3.70;;;;;;;;;;5054187;28;20210;-85
2022/10/09 00:44:58;;;;;;;4.77;3.57;;;;;;;;;;5055037;28;20210;-85
2022/10/09 00:47:29;;;;;;;3.50;3.20;;;;;;;;;;5054128;28;20240;-85
2022/10/09 00:49:58;;;;;;;4.40;4.00;;;;;;;;;;5054406;28;20226;-85
2022/10/09 00:52:26;;;;;;;3.97;3.67;;;;;;;;;;5054340;28;20206;-84
2022/10/09 00:54:56;;;;;;;4.80;3.90;;;;;;;;;;5054825;28;20206;-84
2022/10/09 00:57:23;;;;;;;4.80;3.77;;;;;;;;;;5054035;28;20199;-85
2022/10/09 00:59:50;;;;;;;6.63;4.43;;;;;;;;;;5053351;28;20576;-85
2022/10/09 01:02:18;;;;;;;4.00;3.60;;;;;;;;;;5053897;28;20206;-86
2022/10/09 01:04:45;;;;;;;4.20;3.80;;;;;;;;;;5053194;28;20692;-85
2022/10/09 01:07:19;;;;;;;5.57;3.47;;;;;;;;;;5054377;28;20614;-84
2022/10/09 01:09:51;;;;;;;5.93;4.53;;;;;;;;;;5053655;28;20252;-85
2022/10/09 01:12:22;;;;;;;6.43;3.60;;;;;;;;;;5054142;28;20190;-86
2022/10/09 01:14:57;;;;;;;6.23;4.17;;;;;;;;;;5054207;28;20662;-84
2022/10/09 01:17:27;;;;;;;7.33;4.00;;;;;;;;;;5053870;28;20193;-85
2022/10/09 01:20:07;;;;;;;5.60;3.87;;;;;;;;;;5054158;28;20239;-85
2022/10/09 01:22:40;;;;;;;4.77;4.30;;;;;;;;;;5053627;28;20186;-85
2022/10/09 01:25:08;;;;;;;9.23;4.50;;;;;;;;;;5054014;28;20726;-84
2022/10/09 01:27:37;;;;;;;6.63;4.00;;;;;;;;;;5052634;28;20248;-85
2022/10/09 01:30:07;;;;;;;8.80;4.60;;;;;;;;;;5053626;28;20716;-84
2022/10/09 01:32:37;;;;;;;5.03;3.90;;;;;;;;;;5053719;28;20191;-85
2022/10/09 01:35:05;;;;;;;4.73;4.07;;;;;;;;;;5053919;28;20182;-84
2022/10/09 01:37:33;;;;;;;6.50;4.37;;;;;;;;;;5053181;28;20206;-85
2022/10/09 01:40:01;;;;;;;8.63;4.83;;;;;;;;;;5053439;28;20198;-84
2022/10/09 01:42:29;;;;;;;5.90;4.60;;;;;;;;;;5053446;28;20206;-85
2022/10/09 01:44:57;;;;;;;6.67;4.10;;;;;;;;;;5053720;28;20202;-84
2022/10/09 01:47:25;;;;;;;9.07;4.70;;;;;;;;;;5053351;28;20214;-86
2022/10/09 01:49:55;;;;;;;4.83;4.30;;;;;;;;;;5053147;28;20717;-85
2022/10/09 01:52:27;;;;;;;6.80;4.20;;;;;;;;;;5052968;28;20205;-85
2022/10/09 01:54:59;;;;;;;5.30;4.00;;;;;;;;;;5053970;28;20183;-85
2022/10/09 01:57:30;;;;;;;6.67;4.17;;;;;;;;;;5052923;28;20195;-85
2022/10/09 01:59:59;;;;;;;4.37;3.93;;;;;;;;;;5053450;28;20186;-85
2022/10/09 02:02:26;;;;;;;7.60;4.07;;;;;;;;;;5052791;28;20678;-85
2022/10/09 02:04:54;;;;;;;8.27;4.67;;;;;;;;;;5053626;28;20202;-84
2022/10/09 02:07:21;;;;;;;5.80;4.40;;;;;;;;;;5052987;28;20568;-85
2022/10/09 02:09:49;;;;;;;4.57;3.93;;;;;;;;;;5052939;28;20230;-85
2022/10/09 02:12:19;;;;;;;5.80;4.47;;;;;;;;;;5052882;28;20194;-85
2022/10/09 02:14:46;;;;;;;4.60;4.20;;;;;;;;;;5053563;28;20194;-84
2022/10/09 02:17:17;;;;;;;4.90;3.90;;;;;;;;;;5052407;28;20217;-86
2022/10/09 02:19:48;;;;;;;5.10;3.83;;;;;;;;;;5052282;28;20654;-84
2022/10/09 02:22:16;;;;;;;5.30;3.60;;;;;;;;;;5052603;28;20205;-86
2022/10/09 02:24:44;;;;;;;4.93;3.10;;;;;;;;;;5053104;28;20220;-85
2022/10/09 02:27:11;;;;;;;5.27;3.43;;;;;;;;;;5052798;28;20194;-84
2022/10/09 02:29:39;;;;;;;4.10;3.73;;;;;;;;;;5051994;28;20236;-85
2022/10/09 02:32:06;;;;;;;4.87;3.70;;;;;;;;;;5052878;28;20229;-85
2022/10/09 02:34:34;;;;;;;3.33;2.97;;;;;;;;;;5052084;28;20236;-84
2022/10/09 02:37:01;;;;;;;4.63;3.73;;;;;;;;;;5052506;28;20211;-84
2022/10/09 02:39:29;;;;;;;5.63;3.30;;;;;;;;;;5051838;28;20240;-84
2022/10/09 02:41:56;;;;;;;6.07;3.40;;;;;;;;;;5052361;28;20230;-84
2022/10/09 02:44:23;;;;;;;6.00;3.83;;;;;;;;;;5051531;28;20240;-84
2022/10/09 02:46:50;;;;;;;6.67;3.83;;;;;;;;;;5052591;28;20218;-84
2022/10/09 02:49:17;;;;;;;4.30;3.60;;;;;;;;;;5051534;28;20248;-84
2022/10/09 02:51:45;;;;;;;8.07;3.70;;;;;;;;;;5052299;28;20218;-84
2022/10/09 02:54:12;;;;;;;5.47;3.80;;;;;;;;;;5052044;28;20730;-84
2022/10/09 02:56:39;;;;;;;7.13;4.03;;;;;;;;;;5052216;28;20205;-84
2022/10/09 02:59:07;;;;;;;5.23;3.80;;;;;;;;;;5051584;28;20237;-84
2022/10/09 03:01:34;;;;;;;5.17;3.97;;;;;;;;;;5052206;28;20694;-84
2022/10/09 03:04:01;;;;;;;6.80;3.80;;;;;;;;;;5051441;28;20237;-84
2022/10/09 03:06:28;;;;;;;3.97;3.57;;;;;;;;;;5052005;28;20206;-84
2022/10/09 03:08:57;;;;;;;6.43;4.10;;;;;;;;;;5051227;28;20233;-84
2022/10/09 03:11:25;;;;;;;6.17;4.27;;;;;;;;;;5051769;28;20732;-84
2022/10/09 03:13:53;;;;;;;6.87;4.13;;;;;;;;;;5051314;28;20237;-84
2022/10/09 03:16:21;;;;;;;6.63;4.33;;;;;;;;;;5051749;28;20214;-84
2022/10/09 03:18:48;;;;;;;9.60;4.90;;;;;;;;;;5051174;28;20255;-84
2022/10/09 03:21:16;;;;;;;4.93;4.07;;;;;;;;;;5051668;28;20229;-84
2022/10/09 03:23:43;;;;;;;5.00;3.70;;;;;;;;;;5051374;28;20233;-84
2022/10/09 03:26:13;;;;;;;7.37;4.43;;;;;;;;;;5051554;28;20207;-84
2022/10/09 03:28:41;;;;;;;4.80;4.40;;;;;;;;;;5051096;28;20240;-84
2022/10/09 03:31:09;;;;;;;12.47;5.00;;;;;;;;;;5051446;28;20226;-84
2022/10/09 03:33:36;;;;;;;10.17;5.23;;;;;;;;;;5051374;28;20232;-84
2022/10/09 03:36:03;;;;;;;12.07;4.93;;;;;;;;;;5051771;28;20662;-84
2022/10/09 03:38:30;;;;;;;18.57;5.50;;;;;;;;;;5050989;28;20240;-84
2022/10/09 03:40:58;;;;;;;10.80;5.10;;;;;;;;;;5051730;28;20236;-84
2022/10/09 03:43:27;;;;;;;5.30;4.80;;;;;;;;;;5051224;28;20713;-84
2022/10/09 03:45:55;;;;;;;14.17;5.20;;;;;;;;;;5051570;28;20201;-83
2022/10/09 03:48:22;;;;;;;7.20;5.27;;;;;;;;;;5051053;28;20251;-83
2022/10/09 03:50:49;;;;;;;20.33;9.50;;;;;;;;;;5054376;28;20237;-83
2022/10/09 03:53:16;;;;;;;9.17;7.30;;;;;;;;;;5055342;28;20240;-83
2022/10/09 03:55:44;;;;;;;14.63;5.97;;;;;;;;;;5055655;28;20194;-83
2022/10/09 03:58:11;;;;;;;11.23;5.60;;;;;;;;;;5054894;28;20238;-83
2022/10/09 04:00:39;;;;;;;17.97;6.30;;;;;;;;;;5055498;28;20252;-83
2022/10/09 04:03:06;;;;;;;6.27;5.67;;;;;;;;;;5055014;28;20238;-83
2022/10/09 04:05:34;;;;;;;17.40;5.73;;;;;;;;;;5055723;28;20231;-83
2022/10/09 04:08:01;;;;;;;6.60;4.93;;;;;;;;;;5054999;28;20650;-83
2022/10/09 04:10:28;;;;;;;7.60;5.30;;;;;;;;;;5055438;28;20239;-83
2022/10/09 04:12:55;;;;;;;9.90;5.40;;;;;;;;;;5054774;28;20233;-83
2022/10/09 04:15:23;;;;;;;5.33;4.83;;;;;;;;;;5055622;28;20215;-83
2022/10/09 04:17:51;;;;;;;8.03;4.77;;;;;;;;;;5053944;28;20719;-84
2022/10/09 04:20:19;;;;;;;11.87;4.50;;;;;;;;;;5055227;28;20224;-83
2022/10/09 04:22:46;;;;;;;7.40;5.33;;;;;;;;;;5055016;28;20237;-84
2022/10/09 04:25:13;;;;;;;15.73;5.03;;;;;;;;;;5044101;28;20207;-83
2022/10/09 04:27:40;;;;;;;15.60;5.03;;;;;;;;;;5034571;28;20249;-83
2022/10/09 04:30:09;;;;;;;10.20;5.00;;;;;;;;;;5034762;28;20626;-83
2022/10/09 04:32:36;;;;;;;9.93;5.87;;;;;;;;;;5051618;28;20251;-83
2022/10/09 04:35:05;;;;;;;22.37;9.47;;;;;;;;;;5055340;28;20228;-83
2022/10/09 04:37:33;;;;;;;9.23;5.53;;;;;;;;;;5053861;28;20716;-83
2022/10/09 04:40:00;;;;;;;9.83;5.30;;;;;;;;;;5053434;28;20232;-83
2022/10/09 04:42:27;;;;;;;6.97;5.40;;;;;;;;;;5055854;28;20208;-83
2022/10/09 04:44:54;;;;;;;5.40;4.80;;;;;;;;;;5054233;28;20206;-83
2022/10/09 04:47:21;;;;;;;11.83;4.57;;;;;;;;;;5054253;28;20206;-83
2022/10/09 04:49:48;;;;;;;4.60;4.20;;;;;;;;;;5036409;28;20220;-83
2022/10/09 04:52:17;;;;;;;8.80;4.47;;;;;;;;;;5034515;28;20230;-84
2022/10/09 04:54:44;;;;;;;6.30;5.13;;;;;;;;;;5040498;28;20212;-83
2022/10/09 04:57:11;;;;;;;6.50;4.83;;;;;;;;;;5054450;28;20206;-83
2022/10/09 04:59:38;;;;;;;7.00;4.20;;;;;;;;;;5054064;28;20327;-83
2022/10/09 05:02:05;;;;;;;9.23;4.70;;;;;;;;;;5052989;28;20230;-83
2022/10/09 05:04:32;;;;;;;6.43;4.33;;;;;;;;;;5038110;28;20279;-83
2022/10/09 05:06:59;;;;;;;8.73;4.87;;;;;;;;;;5035640;28;20199;-82
2022/10/09 05:09:28;;;;;;;7.07;5.00;;;;;;;;;;5052879;28;20298;-83
2022/10/09 05:11:55;;;;;;;8.07;4.53;;;;;;;;;;5054349;28;20226;-83
2022/10/09 05:14:22;;;;;;;9.00;4.30;;;;;;;;;;5053750;28;20238;-83
2022/10/09 05:16:51;;;;;;;26.70;4.50;;;;;;;;;;5053371;28;20664;-83
2022/10/09 05:19:19;;;;;;;25.37;5.53;;;;;;;;;;5053380;28;20655;-83
2022/10/09 05:21:46;;;;;;;6.83;4.77;;;;;;;;;;5054261;28;20229;-83
2022/10/09 05:24:13;;;;;;;10.93;5.17;;;;;;;;;;5053570;28;20239;-83
2022/10/09 05:26:41;;;;;;;42.93;5.83;;;;;;;;;;5054255;28;20212;-82
2022/10/09 05:29:08;;;;;;;31.23;4.87;;;;;;;;;;5053077;28;20233;-81
2022/10/09 05:31:36;;;;;;;14.73;5.07;;;;;;;;;;5053476;28;20723;-81
2022/10/09 05:34:03;;;;;;;20.80;5.20;;;;;;;;;;5053510;28;20244;-80
2022/10/09 05:36:30;;;;;;;12.57;4.90;;;;;;;;;;5053665;28;20217;-81
2022/10/09 05:38:59;;;;;;;20.43;4.83;;;;;;;;;;5052959;28;20237;-81
2022/10/09 05:41:27;;;;;;;31.67;5.33;;;;;;;;;;5053435;28;20278;-80
2022/10/09 05:43:56;;;;;;;8.97;4.50;;;;;;;;;;5044296;28;20229;-81
2022/10/09 05:46:24;;;;;;;7.07;4.30;;;;;;;;;;5034549;28;20213;-78
2022/10/09 05:48:52;;;;;;;11.87;4.80;;;;;;;;;;5050080;28;20229;-79
2022/10/09 05:51:20;;;;;;;11.13;4.40;;;;;;;;;;5053028;28;20577;-78
2022/10/09 05:53:48;;;;;;;15.60;4.67;;;;;;;;;;5039184;28;20235;-78
2022/10/09 05:56:16;;;;;;;8.13;4.07;;;;;;;;;;5033334;28;20240;-80
2022/10/09 05:58:44;;;;;;;8.87;4.10;;;;;;;;;;5032719;28;20736;-81
2022/10/09 06:01:12;;;;;;;4.63;3.90;;;;;;;;;;5033301;28;20235;-81
2022/10/09 06:03:39;;;;;;;6.20;3.90;;;;;;;;;;5032736;28;20248;-80
2022/10/09 06:06:07;;;;;;;9.63;4.50;;;;;;;;;;5047892;28;20202;-80
2022/10/09 06:08:35;;;;;;;4.93;4.53;;;;;;;;;;5052182;28;20787;-80
2022/10/09 06:11:09;;;;;;;6.37;4.10;;;;;;;;;;5052717;28;20225;-83
2022/10/09 06:13:36;;;;;;;6.73;4.67;;;;;;;;;;5052024;28;20244;-81
2022/10/09 06:16:03;;;;;;;4.10;3.57;;;;;;;;;;5052845;28;20220;-81
2022/10/09 06:18:32;;;;;;;4.30;3.97;;;;;;;;;;5049083;28;20233;-80
2022/10/09 06:20:59;;;;;;;5.13;4.63;;;;;;;;;;5065133;28;20583;-80
2022/10/09 06:23:27;;;;;;;4.57;4.03;;;;;;;;;;5051599;28;20231;-78
2022/10/09 06:25:55;;;;;;;8.20;4.07;;;;;;;;;;5052184;28;20201;-80
2022/10/09 06:28:22;;;;;;;18.43;4.77;;;;;;;;;;5051987;28;20244;-80
2022/10/09 06:30:50;;;;;;;10.00;4.70;;;;;;;;;;5052544;28;20241;-81
2022/10/09 06:33:18;;;;;;;4.83;4.43;;;;;;;;;;5052318;28;20626;-81
2022/10/09 06:35:46;;;;;;;6.83;5.80;;;;;;;;;;5052549;28;20202;-82
2022/10/09 06:38:14;;;;;;;4.30;4.00;;;;;;;;;;5051934;28;20586;-81
2022/10/09 06:40:41;;;;;;;9.23;4.83;;;;;;;;;;5052449;28;20226;-80
2022/10/09 06:43:08;;;;;;;5.53;4.63;;;;;;;;;;5051933;28;20239;-80
2022/10/09 06:45:37;;;;;;;6.90;4.80;;;;;;;;;;5051646;28;20209;-80
2022/10/09 06:48:04;;;;;;;16.53;4.70;;;;;;;;;;5051723;28;20293;-80
2022/10/09 06:50:31;;;;;;;4.83;4.23;;;;;;;;;;5051805;28;20248;-80
2022/10/09 06:53:00;;;;;;;8.77;4.60;;;;;;;;;;5051603;28;20720;-80
2022/10/09 06:55:27;;;;;;;5.47;4.40;;;;;;;;;;5051849;28;20209;-80
2022/10/09 06:57:54;;;;;;;7.50;4.73;;;;;;;;;;5051435;28;20254;-81
2022/10/09 07:00:21;;;;;;;5.40;4.50;;;;;;;;;;5051878;28;20220;-80
2022/10/09 07:02:48;;;;;;;4.80;4.30;;;;;;;;;;5051476;28;20597;-80
2022/10/09 07:05:15;;;;;;;5.00;4.10;;;;;;;;;;5052109;28;20204;-81
2022/10/09 07:07:43;;;;;;;4.30;4.00;;;;;;;;;;5051348;28;20239;-81
2022/10/09 07:10:11;;;;;;;4.57;4.17;;;;;;;;;;5051787;28;20238;-80
2022/10/09 07:12:39;;;;;;;5.23;4.10;;;;;;;;;;5051290;28;20248;-80
2022/10/09 07:15:07;;;;;;;5.77;3.97;;;;;;;;;;5051775;28;20221;-81
2022/10/09 07:17:34;;;;;;;5.00;4.60;;;;;;;;;;5050949;28;20237;-80
2022/10/09 07:20:01;;;;;;;4.87;4.50;;;;;;;;;;5051840;28;20589;-81
2022/10/09 07:22:28;;;;;;;5.30;4.80;;;;;;;;;;5051091;28;20737;-81
2022/10/09 07:24:55;;;;;;;6.63;5.20;;;;;;;;;;5050859;28;20674;-80
2022/10/09 07:27:24;;;;;;;5.93;5.37;;;;;;;;;;5051140;28;20589;-81
2022/10/09 07:29:51;;;;;;;6.57;5.57;;;;;;;;;;5051787;28;20222;-81
2022/10/09 07:32:18;;;;;;;14.13;9.60;;;;;;;;;;5051046;28;20284;-81
2022/10/09 07:34:45;;;;;;;14.60;7.90;;;;;;;;;;5051800;28;20228;-80
2022/10/09 07:37:12;;;;;;;16.73;8.97;;;;;;;;;;5050938;28;20690;-81
2022/10/09 07:39:39;;;;;;;16.47;8.77;;;;;;;;;;5051258;28;20218;-81
2022/10/09 07:42:06;;;;;;;11.77;7.97;;;;;;;;;;5051387;28;20228;-80
2022/10/09 07:44:35;;;;;;;12.03;8.70;;;;;;;;;;5050819;28;20299;-78
2022/10/09 07:47:02;;;;;;;12.47;9.43;;;;;;;;;;5051448;28;20210;-79
2022/10/09 07:49:29;;;;;;;12.27;9.50;;;;;;;;;;5050573;28;20238;-80
2022/10/09 07:51:56;;;;;;;13.30;10.57;;;;;;;;;;5051376;28;20240;-80
2022/10/09 07:54:23;;;;;;;11.73;9.60;;;;;;;;;;5050692;28;20244;-79
2022/10/09 07:56:50;;;;;;;10.73;9.50;;;;;;;;;;5051227;28;20199;-80
2022/10/09 07:59:17;;;;;;;13.20;10.17;;;;;;;;;;5054916;28;20229;-79
2022/10/09 08:01:46;;;;;;;11.20;9.90;;;;;;;;;;5071272;28;20694;-80
2022/10/09 08:04:13;;;;;;;12.30;10.07;;;;;;;;;;5070920;28;20255;-79
2022/10/09 08:06:40;;;;;;;12.50;10.33;;;;;;;;;;5071317;28;20213;-79
2022/10/09 08:09:08;;;;;;;15.27;10.63;;;;;;;;;;5070544;28;20739;-79
2022/10/09 08:11:39;;;;;;;14.77;10.97;;;;;;;;;;5071194;28;20233;-80
2022/10/09 08:14:06;;;;;;;14.60;11.17;;;;;;;;;;5070856;28;20311;-80
2022/10/09 08:16:33;;;;;;;13.50;10.50;;;;;;;;;;5071108;28;20709;-78
2022/10/09 08:19:02;;;;;;;11.97;9.77;;;;;;;;;;5070774;28;20233;-78
2022/10/09 08:21:31;;;;;;;14.07;10.60;;;;;;;;;;5070936;28;20244;-78
2022/10/09 08:23:59;;;;;;;13.03;10.03;;;;;;;;;;5070543;28;20237;-78
2022/10/09 08:26:27;;;;;;;12.17;9.23;;;;;;;;;;5070950;28;20205;-78
2022/10/09 08:28:55;;;;;;;10.17;8.87;;;;;;;;;;5070582;28;20233;-78
2022/10/09 08:31:23;;;;;;;10.30;8.87;;;;;;;;;;5070837;28;20610;-78
2022/10/09 08:33:53;;;;;;;10.80;9.67;;;;;;;;;;5070427;28;20320;-78
2022/10/09 08:36:21;;;;;;;9.30;8.40;;;;;;;;;;5072689;28;20730;-78
2022/10/09 08:38:48;;;;;;;11.43;7.97;;;;;;;;;;5074227;28;20237;-78
2022/10/09 08:41:20;;;;;;;10.83;8.73;;;;;;;;;;5074565;28;20230;-78
2022/10/09 08:43:48;;;;;;;8.63;7.73;;;;;;;;;;5074309;28;20316;-79
2022/10/09 08:46:18;;;;;;;10.77;8.17;;;;;;;;;;5074665;28;20206;-78
2022/10/09 08:48:46;;;;;;;9.20;8.30;;;;;;;;;;5073916;28;20241;-79
2022/10/09 08:51:16;;;;;;;10.37;8.60;;;;;;;;;;5074264;28;20233;-78
2022/10/09 08:53:46;;;;;;;9.40;8.37;;;;;;;;;;5073847;28;20709;-79
2022/10/09 08:56:15;;;;;;;11.63;8.70;;;;;;;;;;5074355;28;20253;-79
2022/10/09 08:58:43;;;;;;;9.53;8.33;;;;;;;;;;5073673;28;20712;-79
2022/10/09 09:01:15;;;;;;;8.47;7.60;;;;;;;;;;5054531;28;20222;-80
2022/10/09 09:03:48;;;;;;;12.43;8.33;;;;;;;;;;5053853;28;20248;-80
2022/10/09 09:06:18;;;;;;;11.37;7.70;;;;;;;;;;5054191;28;20576;-80
2022/10/09 09:08:52;;;;;;;10.77;7.93;;;;;;;;;;5053520;28;20233;-80
2022/10/09 09:11:23;;;;;;;8.13;7.33;;;;;;;;;;5053863;28;20225;-80
2022/10/09 09:13:57;;;;;;;8.53;7.53;;;;;;;;;;5053593;28;20233;-80
2022/10/09 09:16:29;;;;;;;7.50;6.80;;;;;;;;;;5054069;28;20211;-80
2022/10/09 09:19:01;;;;;;;8.70;6.73;;;;;;;;;;5053120;28;20664;-80
2022/10/09 09:21:34;;;;;;;7.57;6.70;;;;;;;;;;5053990;28;20222;-80
2022/10/09 09:24:03;;;;;;;6.37;5.10;;;;;;;;;;5053546;28;20244;-80
2022/10/09 09:26:31;;;;;;;6.47;5.67;;;;;;;;;;5053770;28;20206;-80
2022/10/09 09:29:01;;;;;;;6.73;5.20;;;;;;;;;;5053075;28;20241;-80
2022/10/09 09:31:30;;;;;;;4.83;3.83;;;;;;;;;;5053571;28;20592;-80
2022/10/09 09:34:00;;;;;;;3.73;3.43;;;;;;;;;;5053214;28;20261;-80
2022/10/09 09:36:28;;;;;;;5.13;3.00;;;;;;;;;;5053456;28;20206;-79
2022/10/09 09:38:55;;;;;;;6.27;2.90;;;;;;;;;;5052822;28;20237;-79
2022/10/09 09:41:24;;;;;;;3.73;2.80;;;;;;;;;;5053811;28;20229;-80
2022/10/09 09:43:51;;;;;;;6.37;2.60;;;;;;;;;;5052935;28;20237;-81
2022/10/09 09:46:20;;;;;;;5.40;3.20;;;;;;;;;;5053393;28;20210;-80
2022/10/09 09:48:48;;;;;;;2.70;2.50;;;;;;;;;;5051735;28;20744;-80
2022/10/09 09:51:17;;;;;;;3.57;2.93;;;;;;;;;;5053273;28;20229;-80
2022/10/09 09:53:46;;;;;;;4.83;2.50;;;;;;;;;;5052948;28;20237;-80
2022/10/09 09:56:13;;;;;;;7.07;2.13;;;;;;;;;;5053087;28;20209;-80
2022/10/09 09:58:45;;;;;;;4.90;2.53;;;;;;;;;;5052509;28;20241;-80
2022/10/09 10:01:20;;;;;;;4.00;2.60;;;;;;;;;;5073190;28;20301;-80
2022/10/09 10:03:49;;;;;;;2.93;2.33;;;;;;;;;;5072756;28;20620;-81
2022/10/09 10:06:23;;;;;;;4.23;2.23;;;;;;;;;;5072874;28;20294;-80
2022/10/09 10:08:58;;;;;;;2.20;2.00;;;;;;;;;;5072424;28;20237;-80
2022/10/09 10:11:25;;;;;;;2.43;2.00;;;;;;;;;;5072755;28;20225;-81
2022/10/09 10:13:53;;;;;;;4.37;2.17;;;;;;;;;;5072481;28;20248;-81
2022/10/09 10:16:22;;;;;;;3.50;2.00;;;;;;;;;;5072959;28;20228;-81
2022/10/09 10:18:49;;;;;;;2.17;1.63;;;;;;;;;;5072181;28;20229;-81
2022/10/09 10:21:17;;;;;;;3.73;1.80;;;;;;;;;;5072754;28;20229;-81
2022/10/09 10:23:46;;;;;;;3.13;1.90;;;;;;;;;;5072312;28;20233;-81
2022/10/09 10:26:18;;;;;;;1.80;1.63;;;;;;;;;;5072805;28;20202;-81
2022/10/09 10:28:47;;;;;;;2.13;1.93;;;;;;;;;;5072178;28;20236;-82
2022/10/09 10:31:20;;;;;;;5.33;2.13;;;;;;;;;;5072458;28;20232;-82
2022/10/09 10:33:50;;;;;;;3.13;1.60;;;;;;;;;;5072238;28;20237;-82
2022/10/09 10:36:17;;;;;;;4.50;1.90;;;;;;;;;;5072538;28;20209;-82
2022/10/09 10:38:46;;;;;;;3.05;1.90;;;;;;;;;;5072054;28;20242;-81
2022/10/09 10:41:17;;;;;;;1.70;1.60;;;;;;;;;;5072688;28;20305;-81
2022/10/09 10:43:45;;;;;;;2.40;1.67;;;;;;;;;;5072064;28;20240;-82
2022/10/09 10:46:16;;;;;;;1.70;1.60;;;;;;;;;;5072320;28;20206;-82
2022/10/09 10:48:45;;;;;;;3.08;1.67;;;;;;;;;;5071781;28;20240;-82
2022/10/09 10:51:36;;;;;;;1.92;1.58;;;;;;;;;;5072436;28;20320;-82
2022/10/09 10:54:07;;;;;;;1.60;1.50;;;;;;;;;;5071923;28;20233;-82
2022/10/09 10:56:38;;;;;;;3.58;1.95;;;;;;;;;;5072116;28;20208;-81
2022/10/09 10:59:12;;;;;;;2.03;1.35;;;;;;;;;;5068882;28;20255;-82
2022/10/09 11:01:42;;;;;;;2.65;1.50;;;;;;;;;;5052142;28;20221;-81
2022/10/09 11:04:20;;;;;;;1.65;1.30;;;;;;;;;;5051744;28;20266;-81
2022/10/09 11:06:50;;;;;;;1.92;1.50;;;;;;;;;;5052170;28;20225;-82
2022/10/09 11:09:20;;;;;;;3.80;1.63;;;;;;;;;;5051129;28;20230;-82
2022/10/09 11:11:50;;;;;;;1.70;1.27;;;;;;;;;;5051854;28;20234;-83
2022/10/09 11:14:26;;;;;;;2.00;1.42;;;;;;;;;;5051468;28;20240;-81
2022/10/09 11:17:01;;;;;;;1.65;1.25;;;;;;;;;;5051935;28;20212;-81
2022/10/09 11:19:40;;;;;;;2.60;1.42;;;;;;;;;;5050934;28;20235;-81
2022/10/09 11:22:11;;;;;;;2.40;1.38;;;;;;;;;;5054177;28;20230;-81
2022/10/09 11:24:56;;;;;;;1.77;1.27;;;;;;;;;;5054588;28;20316;-82
2022/10/09 11:27:25;;;;;;;1.63;1.50;;;;;;;;;;5051820;28;20232;-81
2022/10/09 11:29:53;;;;;;;3.15;1.20;;;;;;;;;;5051496;28;20222;-81
2022/10/09 11:32:23;;;;;;;1.83;1.00;;;;;;;;;;5051282;28;20218;-83
2022/10/09 11:34:55;;;;;;;1.08;0.88;;;;;;;;;;5052074;28;20205;-82
2022/10/09 11:37:25;;;;;;;2.67;1.50;;;;;;;;;;5050915;28;20202;-83
2022/10/09 11:39:52;;;;;;;1.45;1.10;;;;;;;;;;5051343;28;20210;-82
2022/10/09 11:42:21;;;;;;;3.15;1.02;;;;;;;;;;5051113;28;20201;-82
2022/10/09 11:44:50;;;;;;;2.28;1.33;;;;;;;;;;5051464;28;20574;-82
2022/10/09 11:47:22;;;;;;;2.80;1.20;;;;;;;;;;5050744;28;20197;-82
2022/10/09 11:49:58;;;;;;;1.30;1.20;;;;;;;;;;5051651;28;20208;-82
2022/10/09 11:52:28;;;;;;;1.45;1.30;;;;;;;;;;5050998;28;20229;-82
2022/10/09 11:54:55;;;;;;;1.55;1.13;;;;;;;;;;5051487;28;20239;-82
2022/10/09 11:57:28;;;;;;;2.72;1.50;;;;;;;;;;5050736;28;20208;-82
2022/10/09 12:00:03;;;;;;;2.47;1.30;;;;;;;;;;5060804;28;20205;-81
2022/10/09 12:02:31;;;;;;;1.48;1.35;;;;;;;;;;5071081;28;20212;-82
2022/10/09 12:05:00;;;;;;;1.23;1.13;;;;;;;;;;5071227;28;20208;-82
2022/10/09 12:07:29;;;;;;;2.35;1.30;;;;;;;;;;5070972;28;20619;-82
2022/10/09 12:09:58;;;;;;;2.10;1.20;;;;;;;;;;5071395;28;20213;-81
2022/10/09 12:12:25;;;;;;;1.73;1.50;;;;;;;;;;5074470;28;20225;-82
2022/10/09 12:14:52;;;;;;;2.35;1.85;;;;;;;;;;5075232;28;20205;-83
2022/10/09 12:17:33;;;;;;;2.03;1.30;;;;;;;;;;5074573;28;20208;-82
2022/10/09 12:20:05;;;;;;;0.95;0.93;;;;;;;;;;5075248;28;20585;-84
2022/10/09 12:22:34;;;;;;;3.05;1.20;;;;;;;;;;5074581;28;20716;-81
2022/10/09 12:25:05;;;;;;;2.78;1.30;;;;;;;;;;5075309;28;20201;-80
2022/10/09 12:27:34;;;;;;;1.65;1.10;;;;;;;;;;5074175;28;20784;-81
2022/10/09 12:30:16;;;;;;;3.35;1.30;;;;;;;;;;5075049;28;20213;-81
2022/10/09 12:32:45;;;;;;;2.90;1.30;;;;;;;;;;5074544;28;20237;-81
2022/10/09 12:35:20;;;;;;;1.85;1.35;;;;;;;;;;5074778;28;20206;-81
2022/10/09 12:37:47;;;;;;;1.38;1.15;;;;;;;;;;5074294;28;20239;-81
2022/10/09 12:40:15;;;;;;;1.33;1.10;;;;;;;;;;5074702;28;20221;-81
2022/10/09 12:42:43;;;;;;;2.03;1.42;;;;;;;;;;5074485;28;20229;-82
2022/10/09 12:45:16;;;;;;;2.55;1.35;;;;;;;;;;5074685;28;20232;-81
2022/10/09 12:47:43;;;;;;;1.70;1.40;;;;;;;;;;5073840;28;20287;-81
2022/10/09 12:50:19;;;;;;;4.15;1.80;;;;;;;;;;5074708;28;20233;-81
2022/10/09 12:52:50;;;;;;;1.92;1.30;;;;;;;;;;5074348;28;20237;-81
2022/10/09 12:55:23;;;;;;;2.80;1.70;;;;;;;;;;5074712;28;20639;-83
2022/10/09 12:57:51;;;;;;;3.13;1.60;;;;;;;;;;5073917;28;20237;-81
2022/10/09 13:00:18;;;;;;;1.50;1.40;;;;;;;;;;5061506;28;20722;-81
2022/10/09 13:02:45;;;;;;;2.22;1.40;;;;;;;;;;5054002;28;20237;-81
2022/10/09 13:05:14;;;;;;;3.85;1.80;;;;;;;;;;5054552;28;20201;-81
2022/10/09 13:07:41;;;;;;;2.28;1.20;;;;;;;;;;5053716;28;20240;-81
2022/10/09 13:10:17;;;;;;;3.75;1.88;;;;;;;;;;5054233;28;20226;-80
2022/10/09 13:12:49;;;;;;;3.47;1.58;;;;;;;;;;5054018;28;20237;-80
2022/10/09 13:15:28;;;;;;;3.03;1.65;;;;;;;;;;5054284;28;20202;-80
2022/10/09 13:17:55;;;;;;;1.73;1.60;;;;;;;;;;5053574;28;20234;-81
2022/10/09 13:20:29;;;;;;;1.83;1.65;;;;;;;;;;5053793;28;20234;-80
2022/10/09 13:22:57;;;;;;;5.88;1.60;;;;;;;;;;5052348;28;20734;-80
2022/10/09 13:25:24;;;;;;;3.53;2.00;;;;;;;;;;5053896;28;20217;-80
2022/10/09 13:27:51;;;;;;;2.30;1.75;;;;;;;;;;5053212;28;20240;-80
2022/10/09 13:30:18;;;;;;;1.65;1.50;;;;;;;;;;5053487;28;20240;-80
2022/10/09 13:32:45;;;;;;;2.67;1.90;;;;;;;;;;5053172;28;20245;-80
2022/10/09 13:35:12;;;;;;;1.85;1.45;;;;;;;;;;5053742;28;20221;-80
2022/10/09 13:37:41;;;;;;;2.50;1.45;;;;;;;;;;5053396;28;20238;-80
2022/10/09 13:40:12;;;;;;;1.73;1.50;;;;;;;;;;5053596;28;20226;-80
2022/10/09 13:42:39;;;;;;;2.20;1.52;;;;;;;;;;5053088;28;20237;-80
2022/10/09 13:45:07;;;;;;;2.83;1.77;;;;;;;;;;5053676;28;20572;-80
2022/10/09 13:47:34;;;;;;;2.10;1.90;;;;;;;;;;5052779;28;20690;-80
2022/10/09 13:50:01;;;;;;;1.75;1.40;;;;;;;;;;5053343;28;20198;-80
2022/10/09 13:52:28;;;;;;;3.63;1.85;;;;;;;;;;5052804;28;20228;-80
2022/10/09 13:54:57;;;;;;;1.65;1.55;;;;;;;;;;5053345;28;20211;-80
2022/10/09 13:57:24;;;;;;;2.78;1.63;;;;;;;;;;5052749;28;20217;-80
2022/10/09 13:59:51;;;;;;;2.33;1.42;;;;;;;;;;5061814;28;20210;-80
2022/10/09 14:02:18;;;;;;;5.22;1.63;;;;;;;;;;5072758;28;20708;-80
2022/10/09 14:04:45;;;;;;;2.47;1.23;;;;;;;;;;5073235;28;20692;-80
2022/10/09 14:07:12;;;;;;;1.52;1.40;;;;;;;;;;5073254;28;20322;-80
2022/10/09 14:09:39;;;;;;;2.67;1.92;;;;;;;;;;5072505;28;20233;-80
2022/10/09 14:12:07;;;;;;;1.25;1.13;;;;;;;;;;5073001;28;20236;-80
2022/10/09 14:14:34;;;;;;;2.60;1.60;;;;;;;;;;5072477;28;20233;-80
2022/10/09 14:17:02;;;;;;;1.70;1.23;;;;;;;;;;5073146;28;20217;-80
2022/10/09 14:19:29;;;;;;;3.00;1.85;;;;;;;;;;5072115;28;20240;-79
2022/10/09 14:21:56;;;;;;;1.67;1.40;;;;;;;;;;5072931;28;20229;-80
2022/10/09 14:24:23;;;;;;;2.30;1.70;;;;;;;;;;5072391;28;20736;-80
2022/10/09 14:26:50;;;;;;;2.33;1.52;;;;;;;;;;5072855;28;20218;-80
2022/10/09 14:29:19;;;;;;;1.98;1.55;;;;;;;;;;5071912;28;20611;-80
2022/10/09 14:31:46;;;;;;;2.15;1.40;;;;;;;;;;5072597;28;20241;-80
2022/10/09 14:34:14;;;;;;;4.65;1.77;;;;;;;;;;5071790;28;20237;-80
2022/10/09 14:36:41;;;;;;;2.90;1.75;;;;;;;;;;5072427;28;20242;-80
2022/10/09 14:39:08;;;;;;;2.15;1.42;;;;;;;;;;5071818;28;20283;-80
2022/10/09 14:41:36;;;;;;;1.73;1.55;;;;;;;;;;5072226;28;20290;-80
2022/10/09 14:44:03;;;;;;;2.92;1.60;;;;;;;;;;5071984;28;20607;-80
2022/10/09 14:46:32;;;;;;;1.50;1.40;;;;;;;;;;5072189;28;20201;-80
2022/10/09 14:49:00;;;;;;;2.90;1.65;;;;;;;;;;5071629;28;20324;-81